Orbital elements of SL-16 DEB
| Launched | 21 October 1985 |
| Flight ended | – |
| Launch site | Tyuratam Missile and Space Center, Kazakhstan (Also known as Baikonur Cosmodrome) |
| Owner | Commonwealth of Independent States (former USSR) |
| NORAD ID | 16392 |
| Date fetched |
Epoch osculation |
Inc. [°] |
Ecc. | RA asc node [hr] |
Arg Peri. [°] |
Mean anom [°] |
Mean motion [rev/day] |
Abs. mag |
| Date fetched |
Epoch osculation |
Inc. [°] |
Ecc. | RA asc node [hr] |
Arg Peri. [°] |
Mean anom [°] |
Mean motion [rev/day] |
Abs. mag |
| 2026 May 01 17:56 | 2026 Apr 30 13:47:52 | 70.9689 | 0.01995 | 19.4529 | 22.4852 | 43.1031 | 13.75035 | – |
| 2026 Apr 30 17:56 | 2026 Apr 30 13:47:52 | 70.9689 | 0.01995 | 19.4529 | 22.4852 | 43.1031 | 13.75035 | – |
| 2026 Apr 29 17:57 | 2026 Apr 24 12:43:20 | 70.9690 | 0.01992 | 20.2464 | 31.0944 | 43.1031 | 13.75035 | – |
| 2026 Apr 28 17:56 | 2026 Apr 24 12:43:20 | 70.9690 | 0.01992 | 20.2464 | 31.0944 | 43.1031 | 13.75035 | – |
| 2026 Apr 27 17:58 | 2026 Apr 24 12:43:20 | 70.9690 | 0.01992 | 20.2464 | 31.0944 | 43.1031 | 13.75035 | – |
| 2026 Apr 26 17:58 | 2026 Apr 24 12:43:20 | 70.9690 | 0.01992 | 20.2464 | 31.0944 | 43.1031 | 13.75035 | – |
| 2026 Apr 25 17:58 | 2026 Apr 24 12:43:20 | 70.9690 | 0.01992 | 20.2464 | 31.0944 | 43.1031 | 13.75035 | – |
| 2026 Apr 24 17:59 | 2026 Apr 24 12:43:20 | 70.9690 | 0.01992 | 20.2464 | 31.0944 | 43.1031 | 13.75035 | – |
| 2026 Apr 23 17:57 | 2026 Apr 19 07:44:57 | 70.9696 | 0.01990 | 20.9299 | 38.5082 | 43.1031 | 13.75035 | – |
| 2026 Apr 22 17:57 | 2026 Apr 19 07:44:57 | 70.9696 | 0.01990 | 20.9299 | 38.5082 | 43.1031 | 13.75035 | – |
| 2026 Apr 21 17:57 | 2026 Apr 19 07:44:57 | 70.9696 | 0.01990 | 20.9299 | 38.5082 | 43.1031 | 13.75035 | – |
| 2026 Apr 20 17:57 | 2026 Apr 19 07:44:57 | 70.9696 | 0.01990 | 20.9299 | 38.5082 | 43.1031 | 13.75035 | – |
| 2026 Apr 19 17:58 | 2026 Apr 19 07:44:57 | 70.9696 | 0.01990 | 20.9299 | 38.5082 | 43.1031 | 13.75035 | – |
| 2026 Apr 18 17:56 | 2026 Apr 13 01:26:16 | 70.9707 | 0.01988 | 21.7520 | 47.4530 | 43.1031 | 13.75035 | – |
| 2026 Apr 16 17:57 | 2026 Apr 13 01:26:16 | 70.9707 | 0.01988 | 21.7520 | 47.4530 | 43.1031 | 13.75035 | – |
| 2026 Apr 14 17:57 | 2026 Apr 13 01:26:16 | 70.9707 | 0.01988 | 21.7520 | 47.4530 | 43.1031 | 13.75035 | – |
| 2026 Apr 13 17:57 | 2026 Apr 13 01:26:16 | 70.9707 | 0.01988 | 21.7520 | 47.4530 | 43.1031 | 13.75035 | – |
| 2026 Apr 12 17:57 | 2026 Apr 08 02:43:20 | 70.9715 | 0.01986 | 22.4012 | 54.5167 | 43.1031 | 13.75035 | – |
| 2026 Apr 11 17:57 | 2026 Apr 08 02:43:20 | 70.9715 | 0.01986 | 22.4012 | 54.5167 | 43.1031 | 13.75035 | – |
| 2026 Apr 10 17:58 | 2026 Apr 08 02:43:20 | 70.9715 | 0.01986 | 22.4012 | 54.5167 | 43.1031 | 13.75035 | – |
| 2026 Apr 09 18:01 | 2026 Apr 08 02:43:20 | 70.9715 | 0.01986 | 22.4012 | 54.5167 | 43.1031 | 13.75035 | – |
| 2026 Apr 08 17:57 | 2026 Apr 08 02:43:20 | 70.9715 | 0.01986 | 22.4012 | 54.5167 | 43.1031 | 13.75035 | – |
| 2026 Apr 07 17:57 | 2026 Apr 02 03:32:50 | 70.9724 | 0.01984 | 23.1841 | 63.0493 | 43.1031 | 13.75035 | – |
| 2026 Apr 06 17:57 | 2026 Apr 02 03:32:50 | 70.9724 | 0.01984 | 23.1841 | 63.0493 | 43.1031 | 13.75035 | – |
| 2026 Apr 05 17:56 | 2026 Apr 02 03:32:50 | 70.9724 | 0.01984 | 23.1841 | 63.0493 | 43.1031 | 13.75035 | – |
| 2026 Apr 04 17:57 | 2026 Apr 02 03:32:50 | 70.9724 | 0.01984 | 23.1841 | 63.0493 | 43.1031 | 13.75035 | – |